createdAt,value
2023-05-03T00:01:13.189Z,3.20
2023-05-03T00:04:19.457Z,3.47
2023-05-03T00:07:25.140Z,2.95
2023-05-03T00:10:32.253Z,3.53
2023-05-03T00:13:48.704Z,4.68
2023-05-03T00:16:57.857Z,3.33
2023-05-03T00:20:08.190Z,2.90
2023-05-03T00:23:13.231Z,3.17
2023-05-03T00:26:18.637Z,2.97
2023-05-03T00:29:24.145Z,3.63
2023-05-03T00:32:33.306Z,3.65
2023-05-03T00:35:46.318Z,4.28
2023-05-03T00:38:54.151Z,3.42
2023-05-03T00:42:01.743Z,4.28
2023-05-03T00:45:08.312Z,4.03
2023-05-03T00:48:17.903Z,4.05
2023-05-03T00:51:23.950Z,4.85
2023-05-03T00:54:30.194Z,4.00
2023-05-03T00:57:37.129Z,4.13
2023-05-03T01:00:43.588Z,3.83
2023-05-03T01:03:52.057Z,4.43
2023-05-03T01:07:02.574Z,4.47
2023-05-03T01:10:12.495Z,4.28
2023-05-03T01:13:20.428Z,4.40
2023-05-03T01:16:28.999Z,4.05
2023-05-03T01:19:39.174Z,4.10
2023-05-03T01:22:47.527Z,4.00
2023-05-03T01:25:58.896Z,4.20
2023-05-03T01:29:04.443Z,4.20
2023-05-03T01:32:12.278Z,4.43
2023-05-03T01:35:23.003Z,4.75
2023-05-03T01:38:28.132Z,5.03
2023-05-03T01:41:39.680Z,4.60
2023-05-03T01:44:47.036Z,5.03
2023-05-03T01:48:04.095Z,5.15
2023-05-03T01:51:10.314Z,4.47
2023-05-03T01:54:18.521Z,5.28
2023-05-03T01:57:30.206Z,5.00
2023-05-03T02:00:35.960Z,5.55
2023-05-03T02:03:43.802Z,6.68
2023-05-03T02:06:49.624Z,5.40
2023-05-03T02:09:55.221Z,4.93
2023-05-03T02:13:05.813Z,5.38
2023-05-03T02:16:11.702Z,5.13
2023-05-03T02:19:19.966Z,5.80
2023-05-03T02:22:25.533Z,5.47
2023-05-03T02:25:32.503Z,5.75
2023-05-03T02:28:43.785Z,6.40
2023-05-03T02:31:52.226Z,6.60
2023-05-03T02:38:18.211Z,6.57
2023-05-03T02:41:27.491Z,6.22
2023-05-03T02:44:36.085Z,6.50
2023-05-03T02:47:42.528Z,5.57
2023-05-03T02:50:50.420Z,6.38
2023-05-03T02:53:55.443Z,6.22
2023-05-03T02:57:02.025Z,6.65
2023-05-03T03:00:16.026Z,7.63
2023-05-03T03:03:22.983Z,6.97
2023-05-03T03:06:32.209Z,7.68
2023-05-03T03:09:38.579Z,6.85
2023-05-03T03:12:45.760Z,7.25
2023-05-03T03:15:53.781Z,8.57
2023-05-03T03:19:03.366Z,7.82
2023-05-03T03:22:11.009Z,7.18
2023-05-03T03:25:16.427Z,7.07
2023-05-03T03:28:21.818Z,5.75
2023-05-03T03:31:31.545Z,6.82
2023-05-03T03:34:37.487Z,6.25
2023-05-03T03:37:45.073Z,6.55
2023-05-03T03:40:52.429Z,6.40
2023-05-03T03:43:57.392Z,6.80
2023-05-03T03:47:08.276Z,6.45
2023-05-03T03:50:17.621Z,7.00
2023-05-03T03:53:25.546Z,7.15
2023-05-03T03:56:30.573Z,6.00
2023-05-03T03:59:36.282Z,7.40
2023-05-03T04:02:46.311Z,6.22
2023-05-03T04:05:53.721Z,6.90
2023-05-03T04:08:58.968Z,7.00
2023-05-03T04:12:06.082Z,6.05
2023-05-03T04:15:12.493Z,6.70
2023-05-03T04:18:20.552Z,6.80
2023-05-03T04:21:26.215Z,6.90
2023-05-03T04:24:32.391Z,7.18
2023-05-03T04:27:38.576Z,6.80
2023-05-03T04:30:47.689Z,5.60
2023-05-03T04:33:55.633Z,6.50
2023-05-03T04:37:01.195Z,6.07
2023-05-03T04:40:11.542Z,5.18
2023-05-03T04:43:17.317Z,5.85
2023-05-03T04:46:23.011Z,5.45
2023-05-03T04:49:33.325Z,6.07
2023-05-03T04:52:38.489Z,6.10
2023-05-03T04:55:44.288Z,5.15
2023-05-03T04:58:49.631Z,6.18
2023-05-03T05:01:55.273Z,6.30
2023-05-03T05:05:04.838Z,5.80
2023-05-03T05:08:13.329Z,5.28
2023-05-03T05:11:19.210Z,5.32
2023-05-03T05:14:30.786Z,5.80
2023-05-03T05:17:36.167Z,5.20
2023-05-03T05:20:47.194Z,6.18
2023-05-03T05:23:52.533Z,6.00
2023-05-03T05:27:01.660Z,5.70
2023-05-03T05:30:09.002Z,5.68
2023-05-03T05:33:16.047Z,5.47
2023-05-03T05:36:27.835Z,6.15
2023-05-03T05:39:33.246Z,6.43
2023-05-03T05:42:38.420Z,5.55
2023-05-03T05:45:46.396Z,5.47
2023-05-03T05:48:52.809Z,6.38
2023-05-03T05:52:01.992Z,4.68
2023-05-03T05:55:13.921Z,4.07
2023-05-03T05:58:19.376Z,4.00
2023-05-03T06:01:25.182Z,4.07
2023-05-03T06:04:38.880Z,3.13
2023-05-03T06:07:47.801Z,3.53
2023-05-03T06:10:53.395Z,4.75
2023-05-03T06:14:00.950Z,3.47
2023-05-03T06:17:09.143Z,4.75
2023-05-03T06:20:16.705Z,3.40
2023-05-03T06:23:29.423Z,2.90
2023-05-03T06:26:36.578Z,3.72
2023-05-03T06:29:44.802Z,3.05
2023-05-03T06:32:56.066Z,3.30
2023-05-03T06:36:04.400Z,3.53
2023-05-03T06:39:12.049Z,3.28
2023-05-03T06:42:18.862Z,2.67
2023-05-03T06:45:25.470Z,3.45
2023-05-03T06:48:30.986Z,3.45
2023-05-03T06:51:36.589Z,3.22
2023-05-03T06:54:48.164Z,2.35
2023-05-03T06:57:54.036Z,3.00
2023-05-03T07:00:59.728Z,3.00
2023-05-03T07:04:09.184Z,3.22
2023-05-03T07:07:16.884Z,3.28
2023-05-03T07:10:25.700Z,3.22
2023-05-03T07:13:32.575Z,3.38
2023-05-03T07:16:37.661Z,3.08
2023-05-03T07:19:44.003Z,2.72
2023-05-03T07:22:51.322Z,2.85
2023-05-03T07:26:00.273Z,3.53
2023-05-03T07:29:05.335Z,2.72
2023-05-03T07:32:19.268Z,3.38
2023-05-03T07:35:33.246Z,2.33
2023-05-03T07:38:38.758Z,3.10
2023-05-03T07:41:47.177Z,3.10
2023-05-03T07:44:57.202Z,3.85
2023-05-03T07:48:02.316Z,4.13
2023-05-03T07:51:08.629Z,2.85
2023-05-03T07:54:14.820Z,3.58
2023-05-03T07:57:24.159Z,3.28
2023-05-03T08:00:30.107Z,3.53
2023-05-03T08:03:35.963Z,4.28
2023-05-03T08:06:44.343Z,4.53
2023-05-03T08:09:58.344Z,3.15
2023-05-03T08:13:08.914Z,3.10
2023-05-03T08:16:14.797Z,3.72
2023-05-03T08:19:20.056Z,2.70
2023-05-03T08:22:29.046Z,3.40
2023-05-03T08:25:37.137Z,4.18
2023-05-03T08:28:49.972Z,4.30
2023-05-03T08:31:55.246Z,3.78
2023-05-03T08:35:12.817Z,3.28
2023-05-03T08:38:18.100Z,2.80
2023-05-03T08:41:26.330Z,3.10
2023-05-03T08:44:34.551Z,3.13
2023-05-03T08:47:42.005Z,3.28
2023-05-03T08:50:48.003Z,3.45
2023-05-03T08:53:56.336Z,4.18
2023-05-03T08:57:09.598Z,3.15
2023-05-03T09:00:19.519Z,3.20
2023-05-03T09:03:24.645Z,2.20
2023-05-03T09:06:38.092Z,2.58
2023-05-03T09:09:45.544Z,2.83
2023-05-03T09:12:53.422Z,2.92
2023-05-03T09:16:02.582Z,3.28
2023-05-03T09:19:13.154Z,3.10
2023-05-03T09:22:19.310Z,2.83
2023-05-03T09:25:25.116Z,2.75
2023-05-03T09:28:30.961Z,2.55
2023-05-03T09:31:44.106Z,2.58
2023-05-03T09:35:09.893Z,2.53
2023-05-03T09:38:28.751Z,3.08
2023-05-03T09:41:34.781Z,2.10
2023-05-03T09:44:45.463Z,2.28
2023-05-03T09:47:56.961Z,2.70
2023-05-03T09:51:03.035Z,1.83
2023-05-03T09:54:13.260Z,1.95
2023-05-03T09:57:22.626Z,2.28
2023-05-03T10:00:39.771Z,2.78
2023-05-03T10:03:50.763Z,1.95
2023-05-03T10:06:59.313Z,1.95
2023-05-03T10:10:17.795Z,2.85
2023-05-03T10:13:24.410Z,3.15
2023-05-03T10:16:54.520Z,3.47
2023-05-03T10:20:07.656Z,2.90
2023-05-03T10:23:29.540Z,2.08
2023-05-03T10:27:00.415Z,2.63
2023-05-03T10:30:31.509Z,2.05
2023-05-03T10:33:38.245Z,1.73
2023-05-03T10:36:50.816Z,2.42
2023-05-03T10:39:58.520Z,2.88
2023-05-03T10:43:06.406Z,2.47
2023-05-03T10:46:32.967Z,2.17
2023-05-03T10:49:41.156Z,2.42
2023-05-03T10:52:54.098Z,2.47
2023-05-03T10:56:06.214Z,3.20
2023-05-03T10:59:12.672Z,2.20
2023-05-03T11:02:22.669Z,2.38
2023-05-03T11:05:28.921Z,2.30
2023-05-03T11:08:39.288Z,2.25
2023-05-03T11:11:46.807Z,2.95
2023-05-03T11:14:54.141Z,2.60
2023-05-03T11:17:59.945Z,2.35
2023-05-03T11:21:07.555Z,2.08
2023-05-03T11:24:17.411Z,2.20
2023-05-03T11:27:28.178Z,1.98
2023-05-03T11:30:36.307Z,2.85
2023-05-03T11:33:44.627Z,1.65
2023-05-03T11:36:53.436Z,2.08
2023-05-03T11:40:05.893Z,1.85
2023-05-03T11:43:11.035Z,2.08
2023-05-03T11:46:22.922Z,2.22
2023-05-03T11:52:47.630Z,2.40
2023-05-03T11:55:59.570Z,2.17
2023-05-03T11:59:08.002Z,2.13
2023-05-03T12:02:23.174Z,1.77
2023-05-03T12:05:33.974Z,1.90
2023-05-03T12:11:58.383Z,2.20
2023-05-03T12:15:08.000Z,2.30
2023-05-03T12:18:15.894Z,3.33
2023-05-03T12:21:31.445Z,2.08
2023-05-03T12:24:41.492Z,2.17
2023-05-03T12:28:07.355Z,2.60
2023-05-03T12:31:23.446Z,2.83
2023-05-03T12:34:35.098Z,2.08
2023-05-03T12:37:49.185Z,1.98
2023-05-03T12:40:58.291Z,2.15
2023-05-03T12:44:10.220Z,2.00
2023-05-03T12:47:24.184Z,2.25
2023-05-03T12:50:38.726Z,2.30
2023-05-03T12:53:47.784Z,2.92
2023-05-03T12:56:55.937Z,2.53
2023-05-03T13:00:11.826Z,2.40
2023-05-03T13:03:22.298Z,2.63
2023-05-03T13:06:29.948Z,2.10
2023-05-03T13:10:13.086Z,2.42
2023-05-03T13:13:03.053Z,2.40
2023-05-03T13:16:15.112Z,2.50
2023-05-03T13:19:23.649Z,2.42
2023-05-03T13:22:30.216Z,2.22
2023-05-03T13:25:35.821Z,2.22
2023-05-03T13:28:44.505Z,2.10
2023-05-03T13:31:53.673Z,2.00
2023-05-03T13:35:01.673Z,2.50
2023-05-03T13:38:07.954Z,2.55
2023-05-03T13:41:14.210Z,2.55
2023-05-03T13:44:19.904Z,2.58
2023-05-03T13:47:47.172Z,3.17
2023-05-03T13:51:00.196Z,2.63
2023-05-03T13:54:06.247Z,2.60
2023-05-03T13:57:12.101Z,2.00
2023-05-03T14:00:23.928Z,2.75
2023-05-03T14:03:36.429Z,2.78
2023-05-03T14:06:44.053Z,2.58
2023-05-03T14:09:50.988Z,2.33
2023-05-03T14:12:58.747Z,2.40
2023-05-03T14:16:04.396Z,2.58
2023-05-03T14:19:15.041Z,2.03
2023-05-03T14:22:21.767Z,2.38
2023-05-03T14:25:29.246Z,2.45
2023-05-03T14:28:36.539Z,2.45
2023-05-03T14:31:43.761Z,2.38
2023-05-03T14:34:53.033Z,2.15
2023-05-03T14:37:58.711Z,2.20
2023-05-03T14:41:07.192Z,2.83
2023-05-03T14:44:17.542Z,2.55
2023-05-03T14:47:24.245Z,2.60
2023-05-03T14:50:33.922Z,2.30
2023-05-03T14:53:39.707Z,2.83
2023-05-03T14:56:48.870Z,2.85
2023-05-03T15:00:09.296Z,2.63
2023-05-03T15:03:19.065Z,2.42
2023-05-03T15:06:33.820Z,2.53
2023-05-03T15:09:41.478Z,2.33
2023-05-03T15:12:47.064Z,2.45
2023-05-03T15:15:53.476Z,2.80
2023-05-03T15:18:59.260Z,2.30
2023-05-03T15:22:10.221Z,2.45
2023-05-03T15:25:15.659Z,2.17
2023-05-03T15:28:21.427Z,2.75
2023-05-03T15:31:27.649Z,2.03
2023-05-03T15:34:41.658Z,2.22
2023-05-03T15:37:51.497Z,2.50
2023-05-03T15:40:59.748Z,2.78
2023-05-03T15:44:08.363Z,2.17
2023-05-03T15:47:16.112Z,2.17
2023-05-03T15:50:21.794Z,4.68
2023-05-03T15:53:32.235Z,2.92
2023-05-03T15:56:40.461Z,2.15
2023-05-03T15:59:51.217Z,4.18
2023-05-03T16:02:57.894Z,1.90
2023-05-03T16:06:09.674Z,2.63
2023-05-03T16:09:19.288Z,2.03
2023-05-03T16:12:27.931Z,2.60
2023-05-03T16:15:35.788Z,1.95
2023-05-03T16:18:41.862Z,3.42
2023-05-03T16:21:47.200Z,1.88
2023-05-03T16:25:00.272Z,2.20
2023-05-03T16:28:06.225Z,3.22
2023-05-03T16:31:16.631Z,1.75
2023-05-03T16:34:24.828Z,1.95
2023-05-03T16:37:34.890Z,2.58
2023-05-03T16:40:48.990Z,2.47
2023-05-03T16:43:56.389Z,2.58
2023-05-03T16:47:01.419Z,2.53
2023-05-03T16:50:08.436Z,2.13
2023-05-03T16:53:14.978Z,2.42
2023-05-03T16:56:22.873Z,2.47
2023-05-03T16:59:35.638Z,2.58
2023-05-03T17:02:42.516Z,1.95
2023-05-03T17:05:47.674Z,3.17
2023-05-03T17:08:54.589Z,2.45
2023-05-03T17:12:03.543Z,2.95
2023-05-03T17:15:10.631Z,2.30
2023-05-03T17:18:15.735Z,2.20
2023-05-03T17:21:21.589Z,1.63
2023-05-03T17:24:34.013Z,1.50
2023-05-03T17:27:41.997Z,1.98
2023-05-03T17:30:47.031Z,5.43
2023-05-03T17:33:54.211Z,2.63
2023-05-03T17:36:59.472Z,3.10
2023-05-03T17:40:06.839Z,2.60
2023-05-03T17:43:16.729Z,1.85
2023-05-03T17:46:22.562Z,1.92
2023-05-03T17:49:35.134Z,2.53
2023-05-03T17:52:42.855Z,2.22
2023-05-03T17:55:51.988Z,2.75
2023-05-03T17:59:02.751Z,2.10
2023-05-03T18:02:07.957Z,2.30
2023-05-03T18:05:16.458Z,2.15
2023-05-03T18:08:22.572Z,2.30
2023-05-03T18:11:30.384Z,2.00
2023-05-03T18:14:42.886Z,2.47
2023-05-03T18:17:48.632Z,2.58
2023-05-03T18:21:00.246Z,2.00
2023-05-03T18:24:05.853Z,2.10
2023-05-03T18:27:12.864Z,2.17
2023-05-03T18:30:21.082Z,2.20
2023-05-03T18:33:28.903Z,2.13
2023-05-03T18:36:34.343Z,2.10
2023-05-03T18:39:42.186Z,1.73
2023-05-03T18:42:48.005Z,1.90
2023-05-03T18:45:55.707Z,1.90
2023-05-03T18:49:03.342Z,2.30
2023-05-03T18:52:09.069Z,1.88
2023-05-03T18:55:14.499Z,2.50
2023-05-03T18:58:19.613Z,2.42
2023-05-03T19:01:30.886Z,1.92
2023-05-03T19:04:38.036Z,2.10
2023-05-03T19:07:43.656Z,1.95
2023-05-03T19:10:49.230Z,1.83
2023-05-03T19:13:54.664Z,2.70
2023-05-03T19:17:02.683Z,2.22
2023-05-03T19:20:10.584Z,2.65
2023-05-03T19:23:15.719Z,2.65
2023-05-03T19:26:21.057Z,2.83
2023-05-03T19:29:29.967Z,2.38
2023-05-03T19:32:39.480Z,1.90
2023-05-03T19:35:45.707Z,2.28
2023-05-03T19:38:52.991Z,2.70
2023-05-03T19:42:00.312Z,2.42
2023-05-03T19:45:06.106Z,2.90
2023-05-03T19:48:16.463Z,2.95
2023-05-03T19:51:25.807Z,2.65
2023-05-03T19:54:32.028Z,3.03
2023-05-03T19:57:39.419Z,3.00
2023-05-03T20:00:45.493Z,2.97
2023-05-03T20:03:58.433Z,2.33
2023-05-03T20:07:13.583Z,3.03
2023-05-03T20:10:20.514Z,3.75
2023-05-03T20:13:27.861Z,3.00
2023-05-03T20:16:38.976Z,3.08
2023-05-03T20:19:50.119Z,2.85
2023-05-03T20:22:58.582Z,3.15
2023-05-03T20:26:04.698Z,3.10
2023-05-03T20:29:10.601Z,3.28
2023-05-03T20:32:15.746Z,3.55
2023-05-03T20:35:23.809Z,3.28
2023-05-03T20:38:31.122Z,3.88
2023-05-03T20:41:36.841Z,3.67
2023-05-03T20:44:42.298Z,3.70
2023-05-03T20:47:49.067Z,3.00
2023-05-03T20:51:00.375Z,3.83
2023-05-03T20:54:06.539Z,3.25
2023-05-03T20:57:16.064Z,3.60
2023-05-03T21:00:22.471Z,3.80
2023-05-03T21:03:28.049Z,3.38
2023-05-03T21:06:38.404Z,4.85
2023-05-03T21:09:43.485Z,3.47
2023-05-03T21:12:48.955Z,3.38
2023-05-03T21:15:56.524Z,3.67
2023-05-03T21:19:03.854Z,3.63
2023-05-03T21:22:12.256Z,4.43
2023-05-03T21:25:17.571Z,3.80
2023-05-03T21:28:23.069Z,4.22
2023-05-03T21:31:30.180Z,3.60
2023-05-03T21:34:35.227Z,4.32
2023-05-03T21:37:43.202Z,4.07
2023-05-03T21:40:49.522Z,4.13
2023-05-03T21:43:55.604Z,4.10
2023-05-03T21:47:00.790Z,3.92
2023-05-03T21:50:06.931Z,4.00
2023-05-03T21:53:14.819Z,3.75
2023-05-03T21:56:20.492Z,4.32
2023-05-03T21:59:26.907Z,3.70
2023-05-03T22:02:33.417Z,3.92
2023-05-03T22:05:41.039Z,4.13
2023-05-03T22:08:50.346Z,4.07
2023-05-03T22:11:55.305Z,4.20
2023-05-03T22:15:02.023Z,3.75
2023-05-03T22:18:07.108Z,3.90
2023-05-03T22:21:12.554Z,3.60
2023-05-03T22:24:20.151Z,3.90
2023-05-03T22:27:27.561Z,4.25
2023-05-03T22:30:33.593Z,4.22
2023-05-03T22:33:45.188Z,4.93
2023-05-03T22:36:50.221Z,4.20
2023-05-03T22:40:03.214Z,4.13
2023-05-03T22:43:08.424Z,4.78
2023-05-03T22:46:13.794Z,4.60
2023-05-03T22:49:19.110Z,4.57
2023-05-03T22:52:26.865Z,4.63
2023-05-03T22:55:39.944Z,4.18
2023-05-03T22:58:47.746Z,4.30
2023-05-03T23:01:53.392Z,4.00
2023-05-03T23:04:59.834Z,4.55
2023-05-03T23:08:07.718Z,4.90
2023-05-03T23:11:16.639Z,4.78
2023-05-03T23:14:22.795Z,4.65
2023-05-03T23:17:28.150Z,4.70
2023-05-03T23:20:33.294Z,4.95
2023-05-03T23:23:39.787Z,4.25
2023-05-03T23:26:49.844Z,4.47
2023-05-03T23:29:55.754Z,4.70
2023-05-03T23:33:01.292Z,3.95
2023-05-03T23:36:07.432Z,4.80
2023-05-03T23:39:12.487Z,4.68
2023-05-03T23:42:21.202Z,4.68
2023-05-03T23:45:27.186Z,4.78
2023-05-03T23:48:32.990Z,3.53
2023-05-03T23:51:40.100Z,4.20
2023-05-03T23:54:45.535Z,5.50
2023-05-03T23:57:53.188Z,4.80
